createdAt,value
2022-10-30T00:01:24.970Z,94.82
2022-10-30T00:03:51.835Z,94.84
2022-10-30T00:06:20.309Z,94.68
2022-10-30T00:11:31.958Z,94.53
2022-10-30T00:13:58.644Z,94.64
2022-10-30T00:16:26.139Z,94.56
2022-10-30T00:18:52.752Z,94.77
2022-10-30T00:24:07.093Z,94.35
2022-10-30T00:26:34.021Z,94.37
2022-10-30T00:29:00.563Z,94.30
2022-10-30T00:31:27.345Z,94.37
2022-10-30T00:36:39.603Z,94.21
2022-10-30T00:39:06.308Z,94.01
2022-10-30T00:41:33.162Z,93.95
2022-10-30T00:46:44.821Z,93.58
2022-10-30T00:49:19.279Z,93.72
2022-10-30T00:51:50.005Z,93.77
2022-10-30T00:57:10.741Z,93.60
2022-10-30T00:59:37.836Z,93.50
2022-10-30T01:02:06.872Z,93.37
2022-10-30T01:04:37.116Z,93.43
2022-10-30T01:07:12.581Z,93.29
2022-10-30T01:09:40.307Z,93.12
2022-10-30T01:12:07.329Z,93.10
2022-10-30T01:14:39.268Z,93.10
2022-10-30T01:17:27.695Z,92.96
2022-10-30T01:28:55.560Z,93.53
2022-10-30T01:31:58.623Z,93.39
2022-10-30T01:37:20.243Z,92.85
2022-10-30T01:39:47.080Z,93.05
2022-10-30T01:42:47.957Z,92.57
2022-10-30T01:45:42.220Z,92.96
2022-10-30T01:48:14.535Z,92.96
2022-10-30T01:50:49.019Z,92.96
2022-10-30T01:53:27.116Z,92.99
2022-10-30T01:59:07.537Z,93.36
2022-10-30T02:01:36.492Z,93.14
2022-10-30T02:09:22.255Z,93.12
2022-10-30T02:11:50.736Z,93.19
2022-10-30T02:14:31.308Z,92.85
2022-10-30T02:17:02.399Z,92.71
2022-10-30T02:19:29.040Z,92.97
2022-10-30T02:21:55.970Z,92.96
2022-10-30T02:24:22.536Z,92.73
2022-10-30T02:29:34.091Z,92.83
2022-10-30T02:32:01.134Z,92.76
2022-10-30T02:34:27.849Z,92.71
2022-10-30T02:36:54.564Z,92.98
2022-10-30T02:39:21.354Z,93.00
2022-10-30T02:41:48.546Z,93.27
2022-10-30T02:44:15.323Z,93.55
2022-10-30T02:46:42.328Z,93.54
2022-10-30T02:49:09.290Z,93.72
2022-10-30T02:51:36.379Z,94.00
2022-10-30T02:54:03.352Z,94.03
2022-10-30T02:56:29.971Z,94.23
2022-10-30T03:01:41.800Z,94.37
2022-10-30T03:04:09.075Z,94.34
2022-10-30T03:09:20.835Z,94.47
2022-10-30T03:11:47.499Z,94.45
2022-10-30T03:14:14.351Z,94.74
2022-10-30T03:16:41.070Z,94.60
2022-10-30T03:21:54.523Z,94.68
2022-10-30T03:24:21.130Z,94.79
2022-10-30T03:29:32.835Z,95.14
2022-10-30T03:31:59.491Z,95.12
2022-10-30T03:34:26.994Z,95.29
2022-10-30T03:36:53.780Z,95.33
2022-10-30T03:39:20.559Z,95.35
2022-10-30T03:41:47.173Z,95.30
2022-10-30T03:44:13.876Z,95.29
2022-10-30T03:46:40.484Z,95.34
2022-10-30T03:49:07.252Z,95.17
2022-10-30T03:51:33.911Z,95.22
2022-10-30T03:54:00.418Z,95.39
2022-10-30T03:56:26.979Z,95.33
2022-10-30T03:58:53.831Z,95.48
2022-10-30T04:01:20.553Z,95.58
2022-10-30T04:03:47.376Z,95.77
2022-10-30T04:06:14.089Z,95.92
2022-10-30T04:11:26.036Z,96.34
2022-10-30T04:13:52.916Z,96.53
2022-10-30T04:16:19.587Z,96.53
2022-10-30T04:21:30.870Z,96.74
2022-10-30T04:23:57.973Z,96.66
2022-10-30T04:26:24.463Z,96.59
2022-10-30T04:28:51.243Z,96.42
2022-10-30T04:31:17.942Z,96.24
2022-10-30T04:33:44.696Z,96.30
2022-10-30T04:38:56.250Z,96.10
2022-10-30T04:41:23.007Z,95.88
2022-10-30T04:43:50.024Z,95.66
2022-10-30T04:49:01.366Z,95.45
2022-10-30T04:51:28.172Z,95.32
2022-10-30T04:53:54.893Z,94.84
2022-10-30T04:56:21.696Z,94.33
2022-10-30T04:58:48.538Z,94.33
2022-10-30T05:01:15.340Z,94.11
2022-10-30T05:06:30.137Z,94.01
2022-10-30T05:08:57.372Z,94.05
2022-10-30T05:11:24.324Z,94.10
2022-10-30T05:13:51.002Z,93.96
2022-10-30T05:16:17.675Z,93.79
2022-10-30T05:18:44.292Z,93.88
2022-10-30T05:21:11.932Z,94.15
2022-10-30T05:23:38.682Z,94.27
2022-10-30T05:28:50.330Z,94.20
2022-10-30T05:31:17.103Z,93.93
2022-10-30T05:33:45.062Z,93.61
2022-10-30T05:36:14.077Z,93.75
2022-10-30T05:38:40.902Z,93.49
2022-10-30T05:41:07.656Z,93.41
2022-10-30T05:43:46.760Z,93.47
2022-10-30T05:46:13.320Z,93.65
2022-10-30T05:51:25.697Z,93.47
2022-10-30T05:53:52.672Z,93.31
2022-10-30T05:56:19.325Z,93.12
2022-10-30T06:01:36.240Z,92.88
2022-10-30T06:04:03.361Z,92.93
2022-10-30T06:06:30.000Z,92.79
2022-10-30T06:11:42.372Z,92.66
2022-10-30T06:14:09.396Z,92.57
2022-10-30T06:19:20.880Z,91.32
2022-10-30T06:21:47.955Z,90.97
2022-10-30T06:24:14.772Z,90.78
2022-10-30T06:26:41.912Z,90.64
2022-10-30T06:29:08.815Z,90.22
2022-10-30T06:31:35.479Z,89.60
2022-10-30T06:34:02.542Z,89.20
2022-10-30T06:39:14.707Z,88.35
2022-10-30T06:41:42.767Z,88.13
2022-10-30T06:44:09.561Z,87.76
2022-10-30T06:49:30.251Z,86.72
2022-10-30T06:51:59.849Z,86.72
2022-10-30T06:54:26.279Z,87.00
2022-10-30T06:56:53.406Z,86.15
2022-10-30T07:02:07.031Z,86.10
2022-10-30T07:04:35.416Z,85.82
2022-10-30T07:07:03.063Z,85.23
2022-10-30T07:09:29.860Z,84.67
2022-10-30T07:14:41.696Z,82.94
2022-10-30T07:17:08.657Z,82.77
2022-10-30T07:19:35.326Z,82.69
2022-10-30T07:22:02.024Z,81.55
2022-10-30T07:24:28.761Z,80.65
2022-10-30T07:26:56.179Z,81.20
2022-10-30T07:29:23.220Z,81.01
2022-10-30T07:32:02.152Z,81.06
2022-10-30T07:34:29.619Z,81.83
2022-10-30T07:36:56.494Z,82.14
2022-10-30T07:39:23.263Z,82.31
2022-10-30T07:41:50.439Z,82.43
2022-10-30T07:44:17.528Z,82.24
2022-10-30T07:46:44.876Z,82.12
2022-10-30T07:49:11.660Z,82.01
2022-10-30T07:51:38.855Z,81.98
2022-10-30T07:54:05.558Z,82.31
2022-10-30T07:56:32.098Z,82.89
2022-10-30T07:58:58.682Z,82.60
2022-10-30T08:01:25.438Z,82.50
2022-10-30T08:09:22.396Z,81.85
2022-10-30T08:14:34.476Z,79.95
2022-10-30T08:17:01.071Z,80.00
2022-10-30T08:22:13.643Z,79.97
2022-10-30T08:24:40.341Z,78.39
2022-10-30T08:27:06.936Z,76.99
2022-10-30T08:29:36.396Z,75.37
2022-10-30T08:34:48.359Z,73.58
2022-10-30T08:37:16.982Z,74.22
2022-10-30T08:39:43.888Z,74.07
2022-10-30T08:42:10.997Z,73.91
2022-10-30T08:44:37.550Z,73.37
2022-10-30T09:00:54.900Z,75.17
2022-10-30T09:03:25.571Z,75.03
2022-10-30T09:05:52.539Z,74.98
2022-10-30T09:08:19.385Z,75.57
2022-10-30T09:10:46.070Z,76.13
2022-10-30T09:13:12.994Z,75.85
2022-10-30T09:15:39.791Z,76.11
2022-10-30T09:18:06.800Z,75.63
2022-10-30T09:20:33.717Z,75.06
2022-10-30T09:23:00.916Z,74.73
2022-10-30T09:25:28.218Z,74.59
2022-10-30T09:27:55.177Z,74.00
2022-10-30T09:33:06.927Z,74.64
2022-10-30T09:38:18.755Z,75.69
2022-10-30T09:41:13.576Z,75.54
2022-10-30T09:44:21.979Z,74.82
2022-10-30T09:47:03.883Z,74.33
2022-10-30T09:50:13.794Z,72.96
2022-10-30T09:53:06.332Z,70.97
2022-10-30T09:55:58.916Z,68.11
2022-10-30T09:58:52.709Z,66.44
2022-10-30T10:01:45.458Z,64.38
2022-10-30T10:04:20.993Z,62.10
2022-10-30T10:06:58.337Z,58.11
2022-10-30T10:09:29.212Z,56.39
2022-10-30T10:15:00.313Z,47.97
2022-10-30T10:17:38.955Z,45.99
2022-10-30T10:20:13.546Z,45.30
2022-10-30T10:22:49.964Z,47.00
2022-10-30T10:25:30.333Z,47.09
2022-10-30T10:28:05.220Z,48.18
2022-10-30T10:30:55.756Z,46.89
2022-10-30T10:33:32.756Z,44.72
2022-10-30T10:36:06.056Z,42.63
2022-10-30T10:38:56.853Z,42.04
2022-10-30T10:41:29.855Z,40.63
2022-10-30T10:44:28.758Z,40.03
2022-10-30T10:53:54.696Z,46.92
2022-10-30T10:56:40.185Z,49.68
2022-10-30T10:59:18.766Z,50.60
2022-10-30T11:01:52.544Z,52.62
2022-10-30T11:04:38.946Z,53.97
2022-10-30T11:07:17.737Z,51.41
2022-10-30T11:09:52.676Z,50.46
2022-10-30T11:12:25.538Z,46.53
2022-10-30T11:14:52.172Z,42.69
2022-10-30T11:17:36.656Z,40.58
2022-10-30T11:20:18.312Z,38.42
2022-10-30T11:22:50.841Z,35.97
2022-10-30T11:25:28.590Z,34.36
2022-10-30T11:28:05.056Z,32.78
2022-10-30T11:33:23.216Z,32.17
2022-10-30T11:35:50.754Z,33.12
2022-10-30T11:38:20.846Z,33.15
2022-10-30T11:40:52.296Z,32.51
2022-10-30T11:43:25.596Z,32.15
2022-10-30T11:45:53.719Z,31.05
2022-10-30T11:48:30.319Z,30.46
2022-10-30T11:51:01.583Z,30.33
2022-10-30T11:53:49.775Z,29.20
2022-10-30T11:56:21.178Z,29.34
2022-10-30T11:58:52.819Z,29.03
2022-10-30T12:01:23.936Z,31.13
2022-10-30T12:03:52.956Z,30.03
2022-10-30T12:06:22.459Z,28.87
2022-10-30T12:09:09.800Z,28.94
2022-10-30T12:11:38.720Z,29.14
2022-10-30T12:14:06.217Z,31.95
2022-10-30T12:19:22.495Z,33.45
2022-10-30T12:21:56.567Z,32.83
2022-10-30T12:24:36.329Z,31.71
2022-10-30T12:27:05.736Z,32.04
2022-10-30T12:30:08.851Z,33.50
2022-10-30T12:32:52.219Z,35.07
2022-10-30T12:35:31.310Z,37.02
2022-10-30T12:38:01.969Z,38.96
2022-10-30T12:40:31.397Z,37.98
2022-10-30T12:43:05.001Z,37.02
2022-10-30T12:45:44.581Z,36.89
2022-10-30T12:48:27.558Z,38.15
2022-10-30T12:51:10.322Z,40.01
2022-10-30T12:53:47.055Z,41.83
2022-10-30T12:59:20.043Z,44.87
2022-10-30T13:02:05.468Z,46.06
2022-10-30T13:04:39.343Z,46.42
2022-10-30T13:07:20.911Z,47.70
2022-10-30T13:13:03.735Z,49.97
2022-10-30T13:15:35.472Z,50.96
2022-10-30T13:21:11.323Z,50.88
2022-10-30T13:24:22.667Z,50.56
2022-10-30T13:27:24.252Z,51.53
2022-10-30T13:30:16.702Z,51.26
2022-10-30T13:32:46.500Z,51.71
2022-10-30T13:35:26.746Z,51.76
2022-10-30T13:38:18.601Z,52.55
2022-10-30T13:40:54.527Z,53.60
2022-10-30T13:46:54.258Z,54.48
2022-10-30T13:49:33.313Z,54.38
2022-10-30T13:52:14.596Z,54.36
2022-10-30T13:55:06.996Z,55.45
2022-10-30T13:58:15.162Z,55.25
2022-10-30T14:01:06.133Z,55.77
2022-10-30T14:03:45.272Z,55.69
2022-10-30T14:06:48.806Z,55.42
2022-10-30T14:09:41.716Z,55.63
2022-10-30T14:12:45.883Z,56.34
2022-10-30T14:15:40.502Z,57.50
2022-10-30T14:18:13.088Z,58.05
2022-10-30T14:20:46.901Z,57.13
2022-10-30T14:23:19.998Z,57.39
2022-10-30T14:26:01.945Z,57.64
2022-10-30T14:28:39.054Z,58.01
2022-10-30T15:21:55.993Z,65.59
2022-10-30T15:24:32.118Z,65.31
2022-10-30T15:27:02.737Z,65.50
2022-10-30T15:29:35.451Z,65.59
2022-10-30T15:35:13.901Z,66.07
2022-10-30T15:38:03.491Z,66.20
2022-10-30T15:40:33.567Z,66.33
2022-10-30T15:43:04.587Z,66.28
2022-10-30T15:48:23.199Z,66.87
2022-10-30T15:51:04.429Z,66.89
2022-10-30T15:53:54.211Z,66.83
2022-10-30T15:56:32.832Z,67.75
2022-10-30T15:59:06.667Z,67.99
2022-10-30T16:04:36.941Z,68.08
2022-10-30T16:07:31.680Z,68.02
2022-10-30T16:10:03.590Z,68.03
2022-10-30T16:12:34.756Z,68.59
2022-10-30T16:18:12.778Z,69.10
2022-10-30T16:23:41.618Z,70.42
2022-10-30T16:29:27.210Z,74.28
2022-10-30T16:31:55.761Z,74.13
2022-10-30T16:34:42.641Z,74.35
2022-10-30T16:37:19.458Z,74.74
2022-10-30T16:39:51.172Z,75.00
2022-10-30T16:45:10.613Z,74.32
2022-10-30T16:47:43.426Z,74.30
2022-10-30T16:50:15.860Z,75.21
2022-10-30T16:52:44.794Z,76.17
2022-10-30T16:58:15.096Z,76.95
2022-10-30T17:01:09.865Z,77.10
2022-10-30T17:03:41.899Z,77.48
2022-10-30T17:06:35.900Z,77.58
2022-10-30T17:09:26.393Z,77.57
2022-10-30T17:12:15.636Z,77.82
2022-10-30T17:14:49.566Z,78.05
2022-10-30T17:17:44.096Z,77.97
2022-10-30T17:20:22.848Z,78.37
2022-10-30T17:23:07.722Z,78.50
2022-10-30T17:25:56.278Z,78.70
2022-10-30T17:28:44.785Z,78.70
2022-10-30T17:31:19.279Z,79.12
2022-10-30T17:34:06.878Z,79.63
2022-10-30T17:36:34.909Z,79.69
2022-10-30T17:41:49.814Z,79.97
2022-10-30T17:44:21.516Z,80.09
2022-10-30T17:46:52.279Z,80.25
2022-10-30T17:49:28.795Z,80.28
2022-10-30T17:51:57.840Z,80.31
2022-10-30T17:57:32.659Z,80.73
2022-10-30T18:00:00.988Z,80.90
2022-10-30T18:02:29.128Z,81.28
2022-10-30T18:05:00.253Z,81.50
2022-10-30T18:07:28.889Z,81.69
2022-10-30T18:09:58.353Z,81.75
2022-10-30T18:15:26.156Z,82.15
2022-10-30T18:17:54.494Z,82.50
2022-10-30T18:20:24.173Z,82.57
2022-10-30T18:22:53.692Z,82.66
2022-10-30T18:25:24.678Z,82.79
2022-10-30T18:27:53.637Z,83.05
2022-10-30T18:30:21.850Z,83.31
2022-10-30T18:32:50.671Z,83.25
2022-10-30T18:35:29.726Z,83.39
2022-10-30T18:37:58.678Z,83.63
2022-10-30T18:40:26.757Z,84.09
2022-10-30T18:45:42.115Z,83.94
2022-10-30T18:48:11.606Z,83.75
2022-10-30T18:50:39.965Z,83.59
2022-10-30T18:53:15.924Z,83.47
2022-10-30T18:55:44.804Z,83.63
2022-10-30T18:58:13.336Z,83.94
2022-10-30T19:01:09.943Z,84.05
2022-10-30T19:03:30.449Z,84.34
2022-10-30T19:05:58.958Z,84.48
2022-10-30T19:16:46.538Z,85.25
2022-10-30T19:19:15.279Z,85.57
2022-10-30T19:21:46.416Z,85.58
2022-10-30T19:24:15.682Z,85.55
2022-10-30T19:26:44.013Z,85.79
2022-10-30T19:29:12.251Z,85.88
2022-10-30T19:31:40.337Z,85.84
2022-10-30T19:34:08.682Z,85.69
2022-10-30T19:36:37.462Z,86.35
2022-10-30T19:39:17.059Z,87.80
2022-10-30T19:41:46.083Z,87.71
2022-10-30T19:47:01.916Z,88.36
2022-10-30T19:49:32.903Z,88.26
2022-10-30T19:52:01.357Z,88.30
2022-10-30T19:54:29.692Z,88.35
2022-10-30T19:59:44.264Z,88.76
2022-10-30T20:04:58.746Z,89.52
2022-10-30T20:07:27.156Z,90.03
2022-10-30T20:09:55.317Z,90.02
2022-10-30T20:12:23.603Z,90.23
2022-10-30T20:14:51.709Z,90.23
2022-10-30T20:17:19.966Z,90.19
2022-10-30T20:19:48.192Z,90.23
2022-10-30T20:22:16.340Z,90.65
2022-10-30T20:24:44.673Z,90.66
2022-10-30T20:27:13.377Z,90.69
2022-10-30T20:29:43.836Z,90.99
2022-10-30T20:32:12.063Z,91.17
2022-10-30T20:37:26.112Z,91.40
2022-10-30T20:39:54.434Z,91.36
2022-10-30T20:42:24.298Z,91.58
2022-10-30T20:44:52.899Z,91.54
2022-10-30T20:47:21.065Z,91.43
2022-10-30T20:49:49.226Z,91.52
2022-10-30T20:52:17.394Z,91.61
2022-10-30T20:57:31.715Z,92.08
2022-10-30T20:59:59.987Z,92.13
2022-10-30T21:02:28.792Z,92.35
2022-10-30T21:07:43.156Z,92.60
2022-10-30T21:10:11.321Z,92.47
2022-10-30T21:12:39.690Z,92.31
2022-10-30T21:15:08.086Z,92.33
2022-10-30T21:17:36.531Z,92.14
2022-10-30T21:20:05.109Z,92.22
2022-10-30T21:22:33.558Z,92.27
2022-10-30T21:30:33.626Z,93.11
2022-10-30T21:33:02.194Z,93.31
2022-10-30T21:38:17.327Z,93.03
2022-10-30T21:40:54.252Z,93.09
2022-10-30T21:43:22.623Z,93.08
2022-10-30T21:45:50.816Z,93.51
2022-10-30T21:48:19.710Z,94.04
2022-10-30T21:50:47.899Z,94.25
2022-10-30T21:53:16.146Z,93.92
2022-10-30T21:55:44.437Z,94.19
2022-10-30T21:58:12.483Z,94.64
2022-10-30T22:00:40.944Z,94.92
2022-10-30T22:03:11.220Z,94.65
2022-10-30T22:05:39.389Z,94.43
2022-10-30T22:08:07.767Z,94.05
2022-10-30T22:10:35.941Z,94.03
2022-10-30T22:13:04.064Z,94.09
2022-10-30T22:18:18.269Z,93.83
2022-10-30T22:20:46.296Z,94.17
2022-10-30T22:23:14.464Z,94.93
2022-10-30T22:25:42.677Z,95.31
2022-10-30T22:31:02.226Z,95.05
2022-10-30T22:33:31.859Z,94.93
2022-10-30T22:39:01.881Z,95.12
2022-10-30T22:41:34.585Z,95.43
2022-10-30T22:46:53.933Z,96.09
2022-10-30T22:52:07.889Z,96.29
2022-10-30T22:54:35.966Z,96.36
2022-10-30T22:57:04.020Z,96.12
2022-10-30T22:59:32.070Z,95.92
2022-10-30T23:02:00.561Z,95.74
2022-10-30T23:04:29.036Z,95.47
2022-10-30T23:06:57.241Z,95.33
2022-10-30T23:09:25.491Z,95.64
2022-10-30T23:11:53.479Z,95.53
2022-10-30T23:14:21.722Z,95.47
2022-10-30T23:16:49.720Z,95.57
2022-10-30T23:19:17.898Z,95.72
2022-10-30T23:21:46.021Z,95.88
2022-10-30T23:24:14.708Z,96.23
2022-10-30T23:26:42.855Z,96.38
2022-10-30T23:29:11.135Z,96.47
2022-10-30T23:31:41.500Z,96.61
2022-10-30T23:34:14.112Z,96.37
2022-10-30T23:36:45.245Z,96.49
2022-10-30T23:39:16.833Z,96.46
2022-10-30T23:41:45.614Z,96.63
2022-10-30T23:44:15.641Z,96.97
2022-10-30T23:46:43.998Z,96.87
2022-10-30T23:49:12.376Z,96.72
2022-10-30T23:51:40.640Z,96.93
2022-10-30T23:54:09.140Z,97.05
2022-10-30T23:56:37.259Z,97.58
2022-10-30T23:59:05.499Z,97.45
